sensor_id;sensor_type;location;lat;lon;timestamp;P1;durP1;ratioP1;P2;durP2;ratioP2
72115;SDS011;59991;52.140;5.428;2022-10-17T00:00:31;8.63;;;5.75;;
72115;SDS011;59991;52.140;5.428;2022-10-17T00:01:02;11.30;;;5.78;;
72115;SDS011;59991;52.140;5.428;2022-10-17T00:01:35;7.32;;;5.93;;
72115;SDS011;59991;52.140;5.428;2022-10-17T00:02:06;7.93;;;5.45;;
72115;SDS011;59991;52.140;5.428;2022-10-17T00:02:38;8.50;;;6.18;;
72115;SDS011;59991;52.140;5.428;2022-10-17T00:03:09;7.23;;;6.07;;
72115;SDS011;59991;52.140;5.428;2022-10-17T00:03:41;8.27;;;6.18;;
72115;SDS011;59991;52.140;5.428;2022-10-17T00:04:12;10.35;;;5.72;;
72115;SDS011;59991;52.140;5.428;2022-10-17T00:04:44;6.78;;;5.13;;
72115;SDS011;59991;52.140;5.428;2022-10-17T00:05:15;6.15;;;5.40;;
72115;SDS011;59991;52.140;5.428;2022-10-17T00:05:47;7.07;;;5.50;;
72115;SDS011;59991;52.140;5.428;2022-10-17T00:06:18;7.75;;;5.72;;
72115;SDS011;59991;52.140;5.428;2022-10-17T00:06:50;5.97;;;5.38;;
72115;SDS011;59991;52.140;5.428;2022-10-17T00:07:21;7.07;;;5.88;;
72115;SDS011;59991;52.140;5.428;2022-10-17T00:07:52;7.28;;;6.00;;
72115;SDS011;59991;52.140;5.428;2022-10-17T00:08:24;8.13;;;5.40;;
72115;SDS011;59991;52.140;5.428;2022-10-17T00:08:56;6.60;;;5.82;;
72115;SDS011;59991;52.140;5.428;2022-10-17T00:09:27;7.15;;;5.60;;
72115;SDS011;59991;52.140;5.428;2022-10-17T00:09:59;9.73;;;6.05;;
72115;SDS011;59991;52.140;5.428;2022-10-17T00:10:30;7.35;;;6.10;;
72115;SDS011;59991;52.140;5.428;2022-10-17T00:11:03;6.43;;;5.80;;
72115;SDS011;59991;52.140;5.428;2022-10-17T00:11:37;5.97;;;5.47;;
72115;SDS011;59991;52.140;5.428;2022-10-17T00:12:08;7.45;;;6.55;;
72115;SDS011;59991;52.140;5.428;2022-10-17T00:12:40;6.65;;;6.03;;
72115;SDS011;59991;52.140;5.428;2022-10-17T00:13:11;7.28;;;5.70;;
72115;SDS011;59991;52.140;5.428;2022-10-17T00:13:43;6.33;;;5.47;;
72115;SDS011;59991;52.140;5.428;2022-10-17T00:14:16;10.68;;;5.45;;
72115;SDS011;59991;52.140;5.428;2022-10-17T00:14:47;6.22;;;5.40;;
72115;SDS011;59991;52.140;5.428;2022-10-17T00:15:19;6.65;;;5.95;;
72115;SDS011;59991;52.140;5.428;2022-10-17T00:15:51;7.30;;;6.60;;
72115;SDS011;59991;52.140;5.428;2022-10-17T00:16:27;7.63;;;6.15;;
72115;SDS011;59991;52.140;5.428;2022-10-17T00:17:01;5.95;;;5.32;;
72115;SDS011;59991;52.140;5.428;2022-10-17T00:17:32;6.25;;;5.65;;
72115;SDS011;59991;52.140;5.428;2022-10-17T00:18:04;6.78;;;6.00;;
72115;SDS011;59991;52.140;5.428;2022-10-17T00:18:36;7.22;;;5.65;;
72115;SDS011;59991;52.140;5.428;2022-10-17T00:19:07;9.37;;;6.00;;
72115;SDS011;59991;52.140;5.428;2022-10-17T00:19:39;5.57;;;5.07;;
72115;SDS011;59991;52.140;5.428;2022-10-17T00:20:10;5.85;;;5.15;;
72115;SDS011;59991;52.140;5.428;2022-10-17T00:20:42;7.30;;;5.40;;
72115;SDS011;59991;52.140;5.428;2022-10-17T00:21:14;6.93;;;6.05;;
72115;SDS011;59991;52.140;5.428;2022-10-17T00:21:47;6.45;;;5.82;;
72115;SDS011;59991;52.140;5.428;2022-10-17T00:22:22;6.10;;;5.60;;
72115;SDS011;59991;52.140;5.428;2022-10-17T00:22:53;10.32;;;5.38;;
72115;SDS011;59991;52.140;5.428;2022-10-17T00:23:25;6.47;;;5.82;;
72115;SDS011;59991;52.140;5.428;2022-10-17T00:23:59;5.88;;;5.28;;
72115;SDS011;59991;52.140;5.428;2022-10-17T00:24:31;7.10;;;6.27;;
72115;SDS011;59991;52.140;5.428;2022-10-17T00:25:02;6.28;;;5.38;;
72115;SDS011;59991;52.140;5.428;2022-10-17T00:25:34;6.20;;;5.60;;
72115;SDS011;59991;52.140;5.428;2022-10-17T00:26:07;5.75;;;5.20;;
72115;SDS011;59991;52.140;5.428;2022-10-17T00:26:38;6.13;;;5.10;;
72115;SDS011;59991;52.140;5.428;2022-10-17T00:27:10;5.97;;;5.47;;
72115;SDS011;59991;52.140;5.428;2022-10-17T00:27:41;6.15;;;5.55;;
72115;SDS011;59991;52.140;5.428;2022-10-17T00:28:13;5.75;;;5.13;;
72115;SDS011;59991;52.140;5.428;2022-10-17T00:28:46;6.75;;;5.85;;
72115;SDS011;59991;52.140;5.428;2022-10-17T00:29:18;7.70;;;5.47;;
72115;SDS011;59991;52.140;5.428;2022-10-17T00:29:50;5.00;;;4.60;;
72115;SDS011;59991;52.140;5.428;2022-10-17T00:30:22;8.20;;;4.90;;
72115;SDS011;59991;52.140;5.428;2022-10-17T00:30:54;5.80;;;5.20;;
72115;SDS011;59991;52.140;5.428;2022-10-17T00:31:27;6.13;;;5.53;;
72115;SDS011;59991;52.140;5.428;2022-10-17T00:31:58;5.53;;;5.07;;
72115;SDS011;59991;52.140;5.428;2022-10-17T00:32:30;7.22;;;5.80;;
72115;SDS011;59991;52.140;5.428;2022-10-17T00:33:02;6.82;;;6.22;;
72115;SDS011;59991;52.140;5.428;2022-10-17T00:33:34;6.80;;;6.07;;
72115;SDS011;59991;52.140;5.428;2022-10-17T00:34:05;5.43;;;4.93;;
72115;SDS011;59991;52.140;5.428;2022-10-17T00:34:37;6.43;;;5.30;;
72115;SDS011;59991;52.140;5.428;2022-10-17T00:35:08;6.40;;;5.33;;
72115;SDS011;59991;52.140;5.428;2022-10-17T00:35:40;6.35;;;5.80;;
72115;SDS011;59991;52.140;5.428;2022-10-17T00:36:13;6.05;;;5.45;;
72115;SDS011;59991;52.140;5.428;2022-10-17T00:36:46;7.32;;;6.63;;
72115;SDS011;59991;52.140;5.428;2022-10-17T00:37:17;7.28;;;6.45;;
72115;SDS011;59991;52.140;5.428;2022-10-17T00:37:49;8.68;;;6.22;;
72115;SDS011;59991;52.140;5.428;2022-10-17T00:38:20;7.65;;;6.90;;
72115;SDS011;59991;52.140;5.428;2022-10-17T00:38:53;6.90;;;6.03;;
72115;SDS011;59991;52.140;5.428;2022-10-17T00:39:26;6.40;;;5.80;;
72115;SDS011;59991;52.140;5.428;2022-10-17T00:39:58;9.20;;;6.40;;
72115;SDS011;59991;52.140;5.428;2022-10-17T00:40:30;6.43;;;5.57;;
72115;SDS011;59991;52.140;5.428;2022-10-17T00:41:02;7.20;;;6.50;;
72115;SDS011;59991;52.140;5.428;2022-10-17T00:41:34;10.88;;;6.30;;
72115;SDS011;59991;52.140;5.428;2022-10-17T00:42:05;7.95;;;6.40;;
72115;SDS011;59991;52.140;5.428;2022-10-17T00:42:37;6.97;;;6.28;;
72115;SDS011;59991;52.140;5.428;2022-10-17T00:43:12;5.68;;;5.18;;
72115;SDS011;59991;52.140;5.428;2022-10-17T00:43:55;6.05;;;5.47;;
72115;SDS011;59991;52.140;5.428;2022-10-17T00:45:44;7.65;;;6.93;;
72115;SDS011;59991;52.140;5.428;2022-10-17T00:46:16;7.83;;;5.57;;
72115;SDS011;59991;52.140;5.428;2022-10-17T00:46:47;7.20;;;6.60;;
72115;SDS011;59991;52.140;5.428;2022-10-17T00:47:19;6.95;;;6.22;;
72115;SDS011;59991;52.140;5.428;2022-10-17T00:48:02;6.32;;;5.25;;
72115;SDS011;59991;52.140;5.428;2022-10-17T00:48:38;7.13;;;6.43;;
72115;SDS011;59991;52.140;5.428;2022-10-17T00:49:10;7.22;;;6.40;;
72115;SDS011;59991;52.140;5.428;2022-10-17T00:49:42;7.40;;;6.00;;
72115;SDS011;59991;52.140;5.428;2022-10-17T00:50:14;7.90;;;7.07;;
72115;SDS011;59991;52.140;5.428;2022-10-17T00:50:46;9.88;;;7.55;;
72115;SDS011;59991;52.140;5.428;2022-10-17T00:51:22;8.02;;;6.80;;
72115;SDS011;59991;52.140;5.428;2022-10-17T00:51:58;10.00;;;6.73;;
72115;SDS011;59991;52.140;5.428;2022-10-17T00:52:32;7.70;;;6.13;;
72115;SDS011;59991;52.140;5.428;2022-10-17T00:53:05;8.13;;;7.25;;
72115;SDS011;59991;52.140;5.428;2022-10-17T00:53:38;6.90;;;6.10;;
72115;SDS011;59991;52.140;5.428;2022-10-17T00:54:10;8.32;;;6.60;;
72115;SDS011;59991;52.140;5.428;2022-10-17T00:54:46;10.40;;;7.00;;
72115;SDS011;59991;52.140;5.428;2022-10-17T00:55:22;8.00;;;6.78;;
72115;SDS011;59991;52.140;5.428;2022-10-17T00:55:59;13.20;;;7.10;;
72115;SDS011;59991;52.140;5.428;2022-10-17T00:56:31;8.90;;;8.05;;
72115;SDS011;59991;52.140;5.428;2022-10-17T00:57:04;7.75;;;6.95;;
72115;SDS011;59991;52.140;5.428;2022-10-17T00:57:36;10.47;;;7.40;;
72115;SDS011;59991;52.140;5.428;2022-10-17T00:58:09;8.50;;;7.65;;
72115;SDS011;59991;52.140;5.428;2022-10-17T00:58:41;7.30;;;6.57;;
72115;SDS011;59991;52.140;5.428;2022-10-17T00:59:13;7.88;;;6.50;;
72115;SDS011;59991;52.140;5.428;2022-10-17T00:59:47;7.72;;;6.85;;
72115;SDS011;59991;52.140;5.428;2022-10-17T01:00:22;9.23;;;6.07;;
72115;SDS011;59991;52.140;5.428;2022-10-17T01:00:54;8.00;;;6.35;;
72115;SDS011;59991;52.140;5.428;2022-10-17T01:01:25;6.82;;;6.18;;
72115;SDS011;59991;52.140;5.428;2022-10-17T01:02:10;7.47;;;6.78;;
72115;SDS011;59991;52.140;5.428;2022-10-17T01:02:44;7.55;;;6.53;;
72115;SDS011;59991;52.140;5.428;2022-10-17T01:03:16;6.93;;;6.23;;
72115;SDS011;59991;52.140;5.428;2022-10-17T01:03:47;10.23;;;6.95;;
72115;SDS011;59991;52.140;5.428;2022-10-17T01:04:18;7.97;;;6.50;;
72115;SDS011;59991;52.140;5.428;2022-10-17T01:04:50;7.13;;;6.50;;
72115;SDS011;59991;52.140;5.428;2022-10-17T01:05:25;9.68;;;7.55;;
72115;SDS011;59991;52.140;5.428;2022-10-17T01:05:56;7.15;;;6.05;;
72115;SDS011;59991;52.140;5.428;2022-10-17T01:06:28;7.63;;;6.93;;
72115;SDS011;59991;52.140;5.428;2022-10-17T01:06:59;9.25;;;6.80;;
72115;SDS011;59991;52.140;5.428;2022-10-17T01:07:31;8.88;;;7.35;;
72115;SDS011;59991;52.140;5.428;2022-10-17T01:08:07;7.25;;;6.43;;
72115;SDS011;59991;52.140;5.428;2022-10-17T01:08:39;6.40;;;5.87;;
72115;SDS011;59991;52.140;5.428;2022-10-17T01:09:11;6.32;;;5.82;;
72115;SDS011;59991;52.140;5.428;2022-10-17T01:09:42;8.07;;;5.90;;
72115;SDS011;59991;52.140;5.428;2022-10-17T01:10:16;7.47;;;6.82;;
72115;SDS011;59991;52.140;5.428;2022-10-17T01:12:19;6.50;;;6.00;;
72115;SDS011;59991;52.140;5.428;2022-10-17T01:13:18;6.20;;;5.60;;
72115;SDS011;59991;52.140;5.428;2022-10-17T01:14:00;7.47;;;5.68;;
72115;SDS011;59991;52.140;5.428;2022-10-17T01:14:57;6.38;;;5.75;;
72115;SDS011;59991;52.140;5.428;2022-10-17T01:15:56;6.13;;;5.37;;
72115;SDS011;59991;52.140;5.428;2022-10-17T01:16:38;5.93;;;5.43;;
72115;SDS011;59991;52.140;5.428;2022-10-17T01:17:38;5.60;;;5.10;;
72115;SDS011;59991;52.140;5.428;2022-10-17T01:18:25;5.97;;;5.38;;
72115;SDS011;59991;52.140;5.428;2022-10-17T01:21:23;6.78;;;5.80;;
72115;SDS011;59991;52.140;5.428;2022-10-17T01:21:59;6.82;;;5.63;;
72115;SDS011;59991;52.140;5.428;2022-10-17T01:22:40;5.50;;;5.10;;
72115;SDS011;59991;52.140;5.428;2022-10-17T01:24:40;5.33;;;4.83;;
72115;SDS011;59991;52.140;5.428;2022-10-17T01:26:26;8.13;;;6.15;;
72115;SDS011;59991;52.140;5.428;2022-10-17T01:27:28;6.15;;;5.57;;
72115;SDS011;59991;52.140;5.428;2022-10-17T01:28:29;6.20;;;5.53;;
72115;SDS011;59991;52.140;5.428;2022-10-17T01:29:53;6.75;;;5.78;;
72115;SDS011;59991;52.140;5.428;2022-10-17T01:31:45;8.55;;;7.57;;
72115;SDS011;59991;52.140;5.428;2022-10-17T01:33:19;7.17;;;6.40;;
72115;SDS011;59991;52.140;5.428;2022-10-17T01:34:20;6.72;;;6.13;;
72115;SDS011;59991;52.140;5.428;2022-10-17T01:35:08;6.80;;;6.10;;
72115;SDS011;59991;52.140;5.428;2022-10-17T01:35:47;7.35;;;6.68;;
72115;SDS011;59991;52.140;5.428;2022-10-17T01:38:35;6.55;;;5.95;;
72115;SDS011;59991;52.140;5.428;2022-10-17T01:39:19;6.45;;;5.72;;
72115;SDS011;59991;52.140;5.428;2022-10-17T01:40:02;6.43;;;5.82;;
72115;SDS011;59991;52.140;5.428;2022-10-17T01:41:37;7.83;;;6.77;;
72115;SDS011;59991;52.140;5.428;2022-10-17T01:43:36;8.90;;;5.93;;
72115;SDS011;59991;52.140;5.428;2022-10-17T01:45:05;9.23;;;7.38;;
72115;SDS011;59991;52.140;5.428;2022-10-17T01:46:04;7.78;;;6.78;;
72115;SDS011;59991;52.140;5.428;2022-10-17T01:46:43;6.95;;;6.05;;
72115;SDS011;59991;52.140;5.428;2022-10-17T01:47:23;7.47;;;6.88;;
72115;SDS011;59991;52.140;5.428;2022-10-17T01:48:08;8.75;;;7.43;;
72115;SDS011;59991;52.140;5.428;2022-10-17T01:48:52;6.78;;;5.93;;
72115;SDS011;59991;52.140;5.428;2022-10-17T01:49:26;6.83;;;6.27;;
72115;SDS011;59991;52.140;5.428;2022-10-17T01:50:05;6.22;;;5.68;;
72115;SDS011;59991;52.140;5.428;2022-10-17T01:50:47;6.53;;;6.03;;
72115;SDS011;59991;52.140;5.428;2022-10-17T01:51:26;7.93;;;6.80;;
72115;SDS011;59991;52.140;5.428;2022-10-17T01:52:13;8.30;;;6.68;;
72115;SDS011;59991;52.140;5.428;2022-10-17T01:52:56;7.82;;;6.03;;
72115;SDS011;59991;52.140;5.428;2022-10-17T01:53:35;6.88;;;6.28;;
72115;SDS011;59991;52.140;5.428;2022-10-17T01:54:13;6.75;;;6.15;;
72115;SDS011;59991;52.140;5.428;2022-10-17T01:54:52;7.45;;;6.78;;
72115;SDS011;59991;52.140;5.428;2022-10-17T01:55:32;7.35;;;6.05;;
72115;SDS011;59991;52.140;5.428;2022-10-17T01:56:06;7.13;;;6.63;;
72115;SDS011;59991;52.140;5.428;2022-10-17T01:56:42;8.30;;;6.88;;
72115;SDS011;59991;52.140;5.428;2022-10-17T01:57:28;7.80;;;6.90;;
72115;SDS011;59991;52.140;5.428;2022-10-17T01:58:04;8.32;;;7.47;;
72115;SDS011;59991;52.140;5.428;2022-10-17T01:58:44;8.40;;;7.70;;
72115;SDS011;59991;52.140;5.428;2022-10-17T01:59:24;6.95;;;6.43;;
72115;SDS011;59991;52.140;5.428;2022-10-17T02:00:02;6.78;;;6.28;;
72115;SDS011;59991;52.140;5.428;2022-10-17T02:00:36;8.05;;;6.70;;
72115;SDS011;59991;52.140;5.428;2022-10-17T02:01:10;8.73;;;7.93;;
72115;SDS011;59991;52.140;5.428;2022-10-17T02:01:43;11.35;;;7.57;;
72115;SDS011;59991;52.140;5.428;2022-10-17T02:02:16;10.40;;;6.83;;
72115;SDS011;59991;52.140;5.428;2022-10-17T02:02:55;7.85;;;7.10;;
72115;SDS011;59991;52.140;5.428;2022-10-17T02:03:33;8.00;;;7.25;;
72115;SDS011;59991;52.140;5.428;2022-10-17T02:04:08;7.60;;;6.80;;
72115;SDS011;59991;52.140;5.428;2022-10-17T02:04:41;8.73;;;8.02;;
72115;SDS011;59991;52.140;5.428;2022-10-17T02:05:13;9.25;;;7.57;;
72115;SDS011;59991;52.140;5.428;2022-10-17T02:05:47;7.10;;;6.50;;
72115;SDS011;59991;52.140;5.428;2022-10-17T02:06:18;8.35;;;7.65;;
72115;SDS011;59991;52.140;5.428;2022-10-17T02:06:50;7.97;;;7.38;;
72115;SDS011;59991;52.140;5.428;2022-10-17T02:07:21;10.30;;;7.40;;
72115;SDS011;59991;52.140;5.428;2022-10-17T02:07:53;8.97;;;8.10;;
72115;SDS011;59991;52.140;5.428;2022-10-17T02:08:26;10.27;;;8.77;;
72115;SDS011;59991;52.140;5.428;2022-10-17T02:09:00;7.82;;;6.70;;
72115;SDS011;59991;52.140;5.428;2022-10-17T02:09:32;8.48;;;7.40;;
72115;SDS011;59991;52.140;5.428;2022-10-17T02:10:04;8.30;;;7.30;;
72115;SDS011;59991;52.140;5.428;2022-10-17T02:11:24;9.20;;;8.35;;
72115;SDS011;59991;52.140;5.428;2022-10-17T02:12:54;8.88;;;8.02;;
72115;SDS011;59991;52.140;5.428;2022-10-17T02:13:39;8.15;;;7.40;;
72115;SDS011;59991;52.140;5.428;2022-10-17T02:15:54;11.38;;;7.88;;
72115;SDS011;59991;52.140;5.428;2022-10-17T02:16:33;10.55;;;8.68;;
72115;SDS011;59991;52.140;5.428;2022-10-17T02:17:13;9.10;;;8.15;;
72115;SDS011;59991;52.140;5.428;2022-10-17T02:18:00;9.73;;;7.68;;
72115;SDS011;59991;52.140;5.428;2022-10-17T02:20:34;8.55;;;7.25;;
72115;SDS011;59991;52.140;5.428;2022-10-17T02:21:23;9.25;;;8.30;;
72115;SDS011;59991;52.140;5.428;2022-10-17T02:22:02;7.90;;;7.20;;
72115;SDS011;59991;52.140;5.428;2022-10-17T02:24:10;8.55;;;7.85;;
72115;SDS011;59991;52.140;5.428;2022-10-17T02:25:28;12.23;;;8.20;;
72115;SDS011;59991;52.140;5.428;2022-10-17T02:26:02;8.20;;;7.47;;
72115;SDS011;59991;52.140;5.428;2022-10-17T02:26:43;7.95;;;7.25;;
72115;SDS011;59991;52.140;5.428;2022-10-17T02:27:25;10.88;;;8.77;;
72115;SDS011;59991;52.140;5.428;2022-10-17T02:28:16;9.18;;;8.27;;
72115;SDS011;59991;52.140;5.428;2022-10-17T02:29:49;9.37;;;7.80;;
72115;SDS011;59991;52.140;5.428;2022-10-17T02:31:27;8.00;;;7.28;;
72115;SDS011;59991;52.140;5.428;2022-10-17T02:32:05;9.63;;;8.75;;
72115;SDS011;59991;52.140;5.428;2022-10-17T02:32:43;9.00;;;8.02;;
72115;SDS011;59991;52.140;5.428;2022-10-17T02:34:00;10.00;;;9.00;;
72115;SDS011;59991;52.140;5.428;2022-10-17T02:34:42;9.32;;;8.55;;
72115;SDS011;59991;52.140;5.428;2022-10-17T02:35:17;9.50;;;8.68;;
72115;SDS011;59991;52.140;5.428;2022-10-17T02:35:51;11.30;;;10.18;;
72115;SDS011;59991;52.140;5.428;2022-10-17T02:36:28;13.10;;;9.23;;
72115;SDS011;59991;52.140;5.428;2022-10-17T02:37:06;11.73;;;9.98;;
72115;SDS011;59991;52.140;5.428;2022-10-17T02:37:39;10.40;;;9.38;;
72115;SDS011;59991;52.140;5.428;2022-10-17T02:38:14;10.82;;;9.70;;
72115;SDS011;59991;52.140;5.428;2022-10-17T02:38:46;10.10;;;9.20;;
72115;SDS011;59991;52.140;5.428;2022-10-17T02:39:21;11.73;;;8.82;;
72115;SDS011;59991;52.140;5.428;2022-10-17T02:39:55;10.63;;;9.73;;
72115;SDS011;59991;52.140;5.428;2022-10-17T02:40:29;10.75;;;9.65;;
72115;SDS011;59991;52.140;5.428;2022-10-17T02:41:03;14.63;;;9.38;;
72115;SDS011;59991;52.140;5.428;2022-10-17T02:41:37;11.73;;;9.45;;
72115;SDS011;59991;52.140;5.428;2022-10-17T02:42:11;10.13;;;9.07;;
72115;SDS011;59991;52.140;5.428;2022-10-17T02:42:44;10.15;;;9.02;;
72115;SDS011;59991;52.140;5.428;2022-10-17T02:43:16;11.23;;;10.13;;
72115;SDS011;59991;52.140;5.428;2022-10-17T02:43:48;13.52;;;9.75;;
72115;SDS011;59991;52.140;5.428;2022-10-17T02:44:21;10.77;;;9.52;;
72115;SDS011;59991;52.140;5.428;2022-10-17T02:44:54;11.18;;;9.15;;
72115;SDS011;59991;52.140;5.428;2022-10-17T02:45:31;10.93;;;9.43;;
72115;SDS011;59991;52.140;5.428;2022-10-17T02:46:06;11.52;;;9.35;;
72115;SDS011;59991;52.140;5.428;2022-10-17T02:46:38;15.13;;;9.90;;
72115;SDS011;59991;52.140;5.428;2022-10-17T02:47:25;10.27;;;9.27;;
72115;SDS011;59991;52.140;5.428;2022-10-17T02:48:03;10.50;;;8.93;;
72115;SDS011;59991;52.140;5.428;2022-10-17T02:48:41;10.48;;;9.50;;
72115;SDS011;59991;52.140;5.428;2022-10-17T02:49:20;10.55;;;9.45;;
72115;SDS011;59991;52.140;5.428;2022-10-17T02:49:55;10.18;;;9.13;;
72115;SDS011;59991;52.140;5.428;2022-10-17T02:50:41;10.35;;;9.13;;
72115;SDS011;59991;52.140;5.428;2022-10-17T02:51:58;12.65;;;9.27;;
72115;SDS011;59991;52.140;5.428;2022-10-17T02:53:37;16.45;;;10.50;;
72115;SDS011;59991;52.140;5.428;2022-10-17T02:54:17;11.02;;;8.38;;
72115;SDS011;59991;52.140;5.428;2022-10-17T02:55:48;9.20;;;8.10;;
72115;SDS011;59991;52.140;5.428;2022-10-17T02:56:24;10.80;;;8.98;;
72115;SDS011;59991;52.140;5.428;2022-10-17T02:57:00;10.38;;;9.43;;
72115;SDS011;59991;52.140;5.428;2022-10-17T02:57:40;11.57;;;9.27;;
72115;SDS011;59991;52.140;5.428;2022-10-17T02:58:18;12.75;;;9.52;;
72115;SDS011;59991;52.140;5.428;2022-10-17T02:58:55;10.05;;;9.13;;
72115;SDS011;59991;52.140;5.428;2022-10-17T02:59:29;12.02;;;9.23;;
72115;SDS011;59991;52.140;5.428;2022-10-17T03:00:04;14.07;;;10.27;;
72115;SDS011;59991;52.140;5.428;2022-10-17T03:00:39;12.20;;;9.00;;
72115;SDS011;59991;52.140;5.428;2022-10-17T03:01:12;10.60;;;9.50;;
72115;SDS011;59991;52.140;5.428;2022-10-17T03:01:44;10.07;;;8.98;;
72115;SDS011;59991;52.140;5.428;2022-10-17T03:02:16;12.88;;;9.48;;
72115;SDS011;59991;52.140;5.428;2022-10-17T03:02:49;11.48;;;9.57;;
72115;SDS011;59991;52.140;5.428;2022-10-17T03:03:23;14.23;;;10.13;;
72115;SDS011;59991;52.140;5.428;2022-10-17T03:04:10;10.88;;;9.65;;
72115;SDS011;59991;52.140;5.428;2022-10-17T03:04:43;14.02;;;9.82;;
72115;SDS011;59991;52.140;5.428;2022-10-17T03:05:17;12.23;;;9.77;;
72115;SDS011;59991;52.140;5.428;2022-10-17T03:05:51;12.75;;;9.75;;
72115;SDS011;59991;52.140;5.428;2022-10-17T03:06:23;9.95;;;8.85;;
72115;SDS011;59991;52.140;5.428;2022-10-17T03:06:54;12.47;;;9.33;;
72115;SDS011;59991;52.140;5.428;2022-10-17T03:07:26;11.75;;;9.43;;
72115;SDS011;59991;52.140;5.428;2022-10-17T03:07:57;13.98;;;9.10;;
72115;SDS011;59991;52.140;5.428;2022-10-17T03:08:29;11.88;;;9.90;;
72115;SDS011;59991;52.140;5.428;2022-10-17T03:09:00;10.82;;;9.82;;
72115;SDS011;59991;52.140;5.428;2022-10-17T03:09:32;10.95;;;9.82;;
72115;SDS011;59991;52.140;5.428;2022-10-17T03:10:03;11.25;;;10.00;;
72115;SDS011;59991;52.140;5.428;2022-10-17T03:10:35;12.18;;;10.95;;
72115;SDS011;59991;52.140;5.428;2022-10-17T03:11:07;11.40;;;9.68;;
72115;SDS011;59991;52.140;5.428;2022-10-17T03:11:38;11.77;;;10.02;;
72115;SDS011;59991;52.140;5.428;2022-10-17T03:12:10;10.87;;;9.73;;
72115;SDS011;59991;52.140;5.428;2022-10-17T03:12:41;10.43;;;9.43;;
72115;SDS011;59991;52.140;5.428;2022-10-17T03:13:13;11.45;;;9.50;;
72115;SDS011;59991;52.140;5.428;2022-10-17T03:13:46;11.10;;;9.65;;
72115;SDS011;59991;52.140;5.428;2022-10-17T03:14:17;11.27;;;10.23;;
72115;SDS011;59991;52.140;5.428;2022-10-17T03:14:49;12.13;;;9.52;;
72115;SDS011;59991;52.140;5.428;2022-10-17T03:15:20;11.50;;;10.30;;
72115;SDS011;59991;52.140;5.428;2022-10-17T03:15:51;9.82;;;8.93;;
72115;SDS011;59991;52.140;5.428;2022-10-17T03:16:23;10.23;;;8.40;;
72115;SDS011;59991;52.140;5.428;2022-10-17T03:16:54;10.45;;;9.45;;
72115;SDS011;59991;52.140;5.428;2022-10-17T03:17:26;10.57;;;9.47;;
72115;SDS011;59991;52.140;5.428;2022-10-17T03:17:57;10.65;;;9.65;;
72115;SDS011;59991;52.140;5.428;2022-10-17T03:18:29;11.98;;;9.95;;
72115;SDS011;59991;52.140;5.428;2022-10-17T03:19:00;10.35;;;9.38;;
72115;SDS011;59991;52.140;5.428;2022-10-17T03:19:32;10.85;;;9.73;;
72115;SDS011;59991;52.140;5.428;2022-10-17T03:20:04;10.52;;;9.55;;
72115;SDS011;59991;52.140;5.428;2022-10-17T03:20:36;10.95;;;9.48;;
72115;SDS011;59991;52.140;5.428;2022-10-17T03:21:08;11.10;;;9.77;;
72115;SDS011;59991;52.140;5.428;2022-10-17T03:21:39;10.95;;;9.95;;
72115;SDS011;59991;52.140;5.428;2022-10-17T03:22:11;10.98;;;9.80;;
72115;SDS011;59991;52.140;5.428;2022-10-17T03:22:42;13.10;;;9.13;;
72115;SDS011;59991;52.140;5.428;2022-10-17T03:23:14;13.00;;;10.52;;
72115;SDS011;59991;52.140;5.428;2022-10-17T03:23:45;11.30;;;10.15;;
72115;SDS011;59991;52.140;5.428;2022-10-17T03:24:17;10.60;;;9.60;;
72115;SDS011;59991;52.140;5.428;2022-10-17T03:24:48;16.10;;;10.65;;
72115;SDS011;59991;52.140;5.428;2022-10-17T03:25:20;11.23;;;10.10;;
72115;SDS011;59991;52.140;5.428;2022-10-17T03:25:52;12.57;;;9.75;;
72115;SDS011;59991;52.140;5.428;2022-10-17T03:26:23;10.93;;;9.93;;
72115;SDS011;59991;52.140;5.428;2022-10-17T03:26:55;13.27;;;10.18;;
72115;SDS011;59991;52.140;5.428;2022-10-17T03:27:26;14.00;;;9.82;;
72115;SDS011;59991;52.140;5.428;2022-10-17T03:27:58;10.10;;;9.10;;
72115;SDS011;59991;52.140;5.428;2022-10-17T03:28:31;10.95;;;8.98;;
72115;SDS011;59991;52.140;5.428;2022-10-17T03:29:03;9.80;;;8.95;;
72115;SDS011;59991;52.140;5.428;2022-10-17T03:29:35;11.07;;;9.65;;
72115;SDS011;59991;52.140;5.428;2022-10-17T03:30:06;12.40;;;10.15;;
72115;SDS011;59991;52.140;5.428;2022-10-17T03:30:38;10.30;;;9.27;;
72115;SDS011;59991;52.140;5.428;2022-10-17T03:31:12;11.70;;;10.50;;
72115;SDS011;59991;52.140;5.428;2022-10-17T03:31:46;10.98;;;9.88;;
72115;SDS011;59991;52.140;5.428;2022-10-17T03:32:17;11.73;;;10.55;;
72115;SDS011;59991;52.140;5.428;2022-10-17T03:32:49;11.75;;;9.43;;
72115;SDS011;59991;52.140;5.428;2022-10-17T03:33:20;11.53;;;9.23;;
72115;SDS011;59991;52.140;5.428;2022-10-17T03:33:52;12.07;;;9.98;;
72115;SDS011;59991;52.140;5.428;2022-10-17T03:34:23;10.20;;;9.13;;
72115;SDS011;59991;52.140;5.428;2022-10-17T03:34:54;10.90;;;9.60;;
72115;SDS011;59991;52.140;5.428;2022-10-17T03:35:26;13.07;;;10.15;;
72115;SDS011;59991;52.140;5.428;2022-10-17T03:35:57;9.82;;;8.93;;
72115;SDS011;59991;52.140;5.428;2022-10-17T03:36:29;11.43;;;10.32;;
72115;SDS011;59991;52.140;5.428;2022-10-17T03:37:00;11.13;;;10.13;;
72115;SDS011;59991;52.140;5.428;2022-10-17T03:37:32;11.57;;;10.32;;
72115;SDS011;59991;52.140;5.428;2022-10-17T03:38:03;11.05;;;9.77;;
72115;SDS011;59991;52.140;5.428;2022-10-17T03:38:35;13.43;;;10.10;;
72115;SDS011;59991;52.140;5.428;2022-10-17T03:39:07;10.15;;;9.07;;
72115;SDS011;59991;52.140;5.428;2022-10-17T03:39:39;14.80;;;9.70;;
72115;SDS011;59991;52.140;5.428;2022-10-17T03:40:10;10.88;;;9.43;;
72115;SDS011;59991;52.140;5.428;2022-10-17T03:40:42;11.93;;;10.65;;
72115;SDS011;59991;52.140;5.428;2022-10-17T03:41:13;11.13;;;10.05;;
72115;SDS011;59991;52.140;5.428;2022-10-17T03:41:45;11.48;;;10.00;;
72115;SDS011;59991;52.140;5.428;2022-10-17T03:42:16;10.98;;;9.88;;
72115;SDS011;59991;52.140;5.428;2022-10-17T03:42:48;13.73;;;10.43;;
72115;SDS011;59991;52.140;5.428;2022-10-17T03:43:19;10.43;;;9.27;;
72115;SDS011;59991;52.140;5.428;2022-10-17T03:43:53;11.70;;;10.60;;
72115;SDS011;59991;52.140;5.428;2022-10-17T03:44:25;12.20;;;9.82;;
72115;SDS011;59991;52.140;5.428;2022-10-17T03:44:56;11.90;;;10.43;;
72115;SDS011;59991;52.140;5.428;2022-10-17T03:45:28;11.65;;;9.88;;
72115;SDS011;59991;52.140;5.428;2022-10-17T03:45:59;11.05;;;9.88;;
72115;SDS011;59991;52.140;5.428;2022-10-17T03:46:31;15.50;;;9.88;;
72115;SDS011;59991;52.140;5.428;2022-10-17T03:47:03;13.25;;;9.88;;
72115;SDS011;59991;52.140;5.428;2022-10-17T03:47:34;12.02;;;9.70;;
72115;SDS011;59991;52.140;5.428;2022-10-17T03:48:05;12.38;;;10.40;;
72115;SDS011;59991;52.140;5.428;2022-10-17T03:48:37;11.25;;;9.15;;
72115;SDS011;59991;52.140;5.428;2022-10-17T03:49:09;10.37;;;9.37;;
72115;SDS011;59991;52.140;5.428;2022-10-17T03:49:40;10.23;;;9.25;;
72115;SDS011;59991;52.140;5.428;2022-10-17T03:50:12;11.13;;;10.02;;
72115;SDS011;59991;52.140;5.428;2022-10-17T03:50:43;13.27;;;9.77;;
72115;SDS011;59991;52.140;5.428;2022-10-17T03:51:15;11.35;;;10.30;;
72115;SDS011;59991;52.140;5.428;2022-10-17T03:51:46;11.43;;;10.20;;
72115;SDS011;59991;52.140;5.428;2022-10-17T03:52:17;11.68;;;9.70;;
72115;SDS011;59991;52.140;5.428;2022-10-17T03:52:49;16.55;;;9.60;;
72115;SDS011;59991;52.140;5.428;2022-10-17T03:53:20;13.05;;;10.00;;
72115;SDS011;59991;52.140;5.428;2022-10-17T03:53:52;14.00;;;10.07;;
72115;SDS011;59991;52.140;5.428;2022-10-17T03:54:23;11.17;;;9.47;;
72115;SDS011;59991;52.140;5.428;2022-10-17T03:54:55;13.73;;;9.60;;
72115;SDS011;59991;52.140;5.428;2022-10-17T03:55:26;12.05;;;9.73;;
72115;SDS011;59991;52.140;5.428;2022-10-17T03:56:07;10.95;;;9.82;;